Terminal Aerodrome Forecast
Issued by NWS

Home | Current Version | Previous Version | Graphics & Text | Print | Product List | Glossary On
Versions: 1 2 3 4 5 6 7 8 9 10 11 12 13 14 15 16
733
FTUS42 KMHX 161301 AAA
TAFISO
TAF AMD
KISO 161301Z 1613/1712 24003KT P6SM BKN040 BKN050
      TEMPO 1613/1614 5SM BR BKN015
     FM161400 33008KT P6SM VCSH SCT020 BKN090
     FM161700 01010G18KT 6SM -SHRA OVC025
     FM162200 01008KT P6SM BKN040
     FM170200 01006KT P6SM FEW250
      AMD LTD TO CLD VIS AND WIND=

USA.gov is the U.S. government's official web portal to all federal, state and local government web resources and services.